createdAt,value
2023-07-21T00:01:09.453Z,0.80
2023-07-21T00:03:42.656Z,1.27
2023-07-21T00:06:13.315Z,1.10
2023-07-21T00:08:53.764Z,1.20
2023-07-21T00:11:23.393Z,0.80
2023-07-21T00:13:52.699Z,1.00
2023-07-21T00:16:22.346Z,1.07
2023-07-21T00:18:52.719Z,1.03
2023-07-21T00:21:23.537Z,0.90
2023-07-21T00:23:54.861Z,0.90
2023-07-21T00:26:26.091Z,1.10
2023-07-21T00:28:56.023Z,1.17
2023-07-21T00:31:25.686Z,0.80
2023-07-21T00:33:55.977Z,1.10
2023-07-21T00:36:27.021Z,1.30
2023-07-21T00:38:59.872Z,1.23
2023-07-21T00:41:29.692Z,0.90
2023-07-21T00:43:59.225Z,1.57
2023-07-21T00:46:31.999Z,1.20
2023-07-21T00:49:02.187Z,0.80
2023-07-21T00:51:32.086Z,1.10
2023-07-21T00:54:07.107Z,1.00
2023-07-21T00:56:36.864Z,1.20
2023-07-21T00:59:07.191Z,1.10
2023-07-21T01:01:36.813Z,1.60
2023-07-21T01:04:08.242Z,1.37
2023-07-21T01:06:39.230Z,1.23
2023-07-21T01:09:11.397Z,1.33
2023-07-21T01:11:41.184Z,1.43
2023-07-21T01:14:11.779Z,1.10
2023-07-21T01:16:44.730Z,1.03
2023-07-21T01:19:19.123Z,1.07
2023-07-21T01:21:51.652Z,1.27
2023-07-21T01:24:32.340Z,1.10
2023-07-21T01:27:06.343Z,1.37
2023-07-21T01:29:38.179Z,1.07
2023-07-21T01:32:13.186Z,1.17
2023-07-21T01:34:46.111Z,1.17
2023-07-21T01:37:25.790Z,1.40
2023-07-21T01:39:55.659Z,1.27
2023-07-21T01:42:30.776Z,0.90
2023-07-21T01:45:01.083Z,1.30
2023-07-21T01:47:33.340Z,1.20
2023-07-21T01:50:11.970Z,1.30
2023-07-21T01:52:42.126Z,1.30
2023-07-21T01:55:18.040Z,0.97
2023-07-21T01:57:55.502Z,1.33
2023-07-21T02:00:38.036Z,0.83
2023-07-21T02:03:17.202Z,1.20
2023-07-21T02:05:49.645Z,1.60
2023-07-21T02:08:21.884Z,1.43
2023-07-21T02:10:53.659Z,1.53
2023-07-21T02:13:35.324Z,1.50
2023-07-21T02:16:06.865Z,1.10
2023-07-21T02:18:40.796Z,1.30
2023-07-21T02:21:12.680Z,1.17
2023-07-21T02:23:42.546Z,1.00
2023-07-21T02:26:12.792Z,1.03
2023-07-21T02:28:44.675Z,1.13
2023-07-21T02:31:14.751Z,1.40
2023-07-21T02:33:47.946Z,1.13
2023-07-21T02:36:21.230Z,1.20
2023-07-21T02:38:53.271Z,1.40
2023-07-21T02:41:24.375Z,1.00
2023-07-21T02:43:55.186Z,0.90
2023-07-21T02:46:25.578Z,1.20
2023-07-21T02:48:56.189Z,1.13
2023-07-21T02:51:25.791Z,2.23
2023-07-21T02:53:55.229Z,1.40
2023-07-21T02:56:25.314Z,1.53
2023-07-21T02:59:05.372Z,1.77
2023-07-21T03:01:35.117Z,1.47
2023-07-21T03:04:05.672Z,1.63
2023-07-21T03:06:47.725Z,1.50
2023-07-21T03:09:17.458Z,2.00
2023-07-21T03:11:47.138Z,1.50
2023-07-21T03:14:31.123Z,1.30
2023-07-21T03:17:00.602Z,1.17
2023-07-21T03:19:34.033Z,1.00
2023-07-21T03:22:09.077Z,1.20
2023-07-21T03:24:40.975Z,1.40
2023-07-21T03:27:14.369Z,1.20
2023-07-21T03:29:47.819Z,1.23
2023-07-21T03:32:18.998Z,0.90
2023-07-21T03:34:52.466Z,1.10
2023-07-21T03:37:24.591Z,1.00
2023-07-21T03:39:54.606Z,1.30
2023-07-21T03:42:24.766Z,1.50
2023-07-21T03:44:57.912Z,1.20
2023-07-21T03:47:29.164Z,1.40
2023-07-21T03:50:01.726Z,0.90
2023-07-21T03:52:32.767Z,1.40
2023-07-21T03:55:04.729Z,1.10
2023-07-21T03:57:35.329Z,1.20
2023-07-21T04:00:09.591Z,1.20
2023-07-21T04:02:48.884Z,1.33
2023-07-21T04:05:18.954Z,1.50
2023-07-21T04:07:48.917Z,1.50
2023-07-21T04:10:19.126Z,1.57
2023-07-21T04:12:48.922Z,1.57
2023-07-21T04:15:20.161Z,1.40
2023-07-21T04:17:49.853Z,1.87
2023-07-21T04:20:19.282Z,1.37
2023-07-21T04:22:49.103Z,1.40
2023-07-21T04:25:22.302Z,1.70
2023-07-21T04:27:56.043Z,2.20
2023-07-21T04:30:28.091Z,1.83
2023-07-21T04:32:58.656Z,1.80
2023-07-21T04:35:30.230Z,1.90
2023-07-21T04:38:03.087Z,1.90
2023-07-21T04:40:38.939Z,1.50
2023-07-21T04:43:09.164Z,1.80
2023-07-21T04:45:44.449Z,1.80
2023-07-21T04:48:22.985Z,1.90
2023-07-21T04:50:58.011Z,1.93
2023-07-21T04:53:27.706Z,1.60
2023-07-21T04:56:01.875Z,1.50
2023-07-21T04:58:38.138Z,1.60
2023-07-21T05:01:21.130Z,2.07
2023-07-21T05:03:58.749Z,1.70
2023-07-21T05:06:38.071Z,1.93
2023-07-21T05:09:16.852Z,1.87
2023-07-21T05:11:54.538Z,1.80
2023-07-21T05:15:02.869Z,1.73
2023-07-21T05:18:00.383Z,1.23
2023-07-21T05:20:46.757Z,1.60
2023-07-21T05:23:26.994Z,1.77
2023-07-21T05:26:07.124Z,1.70
2023-07-21T05:28:39.911Z,1.55
2023-07-21T05:31:13.626Z,1.30
2023-07-21T05:34:09.082Z,1.13
2023-07-21T05:36:40.635Z,1.20
2023-07-21T05:39:12.657Z,1.20
2023-07-21T05:41:43.850Z,1.60
2023-07-21T05:44:15.810Z,1.10
2023-07-21T05:46:46.259Z,1.13
2023-07-21T05:49:18.398Z,1.20
2023-07-21T05:51:49.722Z,1.13
2023-07-21T05:54:26.209Z,1.10
2023-07-21T05:56:57.863Z,1.40
2023-07-21T05:59:33.327Z,1.42
2023-07-21T06:02:03.501Z,1.48
2023-07-21T06:04:40.854Z,1.17
2023-07-21T06:07:29.599Z,1.52
2023-07-21T06:10:25.209Z,1.20
2023-07-21T06:13:07.482Z,1.00
2023-07-21T06:15:52.176Z,0.90
2023-07-21T06:18:40.456Z,0.80
2023-07-21T06:21:13.304Z,0.70
2023-07-21T06:23:48.932Z,0.90
2023-07-21T06:26:18.874Z,0.90
2023-07-21T06:28:49.388Z,1.00
2023-07-21T06:31:24.035Z,1.25
2023-07-21T06:34:04.153Z,0.90
2023-07-21T06:36:48.186Z,1.02
2023-07-21T06:39:23.407Z,1.17
2023-07-21T06:41:59.160Z,1.30
2023-07-21T06:44:39.234Z,1.08
2023-07-21T06:47:26.882Z,0.90
2023-07-21T06:50:14.414Z,1.13
2023-07-21T06:52:52.899Z,1.17
2023-07-21T06:55:24.856Z,1.10
2023-07-21T06:57:54.604Z,0.70
2023-07-21T07:00:24.783Z,1.35
2023-07-21T07:02:55.258Z,1.00
2023-07-21T07:05:25.828Z,1.00
2023-07-21T07:07:57.493Z,0.88
2023-07-21T07:10:28.305Z,1.98
2023-07-21T07:12:57.726Z,0.90
2023-07-21T07:15:28.182Z,0.80
2023-07-21T07:17:57.493Z,0.70
2023-07-21T07:20:27.390Z,0.82
2023-07-21T07:22:58.252Z,0.65
2023-07-21T07:25:28.101Z,0.90
2023-07-21T07:27:57.742Z,0.80
2023-07-21T07:30:30.066Z,0.73
2023-07-21T07:32:59.818Z,1.00
2023-07-21T07:35:30.368Z,0.93
2023-07-21T07:38:04.986Z,0.80
2023-07-21T07:40:35.521Z,0.70
2023-07-21T07:43:04.916Z,0.77
2023-07-21T07:45:36.587Z,0.65
2023-07-21T07:48:07.368Z,0.65
2023-07-21T07:50:41.124Z,0.40
2023-07-21T07:53:12.507Z,0.70
2023-07-21T07:55:43.521Z,0.60
2023-07-21T07:58:13.545Z,0.52
2023-07-21T08:00:44.507Z,0.50
2023-07-21T08:03:13.901Z,0.60
2023-07-21T08:05:43.847Z,0.50
2023-07-21T08:08:14.892Z,0.55
2023-07-21T08:10:44.352Z,0.60
2023-07-21T08:13:13.830Z,0.57
2023-07-21T08:15:43.826Z,0.43
2023-07-21T08:18:13.868Z,0.77
2023-07-21T08:20:45.622Z,0.50
2023-07-21T08:23:28.488Z,0.60
2023-07-21T08:25:59.576Z,0.73
2023-07-21T08:28:29.141Z,0.60
2023-07-21T08:31:03.266Z,0.68
2023-07-21T08:33:34.996Z,0.60
2023-07-21T08:36:04.950Z,0.70
2023-07-21T08:38:38.472Z,0.50
2023-07-21T08:41:09.697Z,0.80
2023-07-21T08:43:40.834Z,0.80
2023-07-21T08:46:10.654Z,0.50
2023-07-21T08:48:42.184Z,0.57
2023-07-21T08:51:11.933Z,0.68
2023-07-21T08:53:42.735Z,0.80
2023-07-21T08:56:12.001Z,0.63
2023-07-21T08:58:41.290Z,0.60
2023-07-21T09:01:10.889Z,0.98
2023-07-21T09:03:47.286Z,0.50
2023-07-21T09:06:18.155Z,0.50
2023-07-21T09:08:49.688Z,0.90
2023-07-21T09:11:19.085Z,0.73
2023-07-21T09:13:53.978Z,0.60
2023-07-21T09:16:23.790Z,0.50
2023-07-21T09:18:56.408Z,0.50
2023-07-21T09:21:27.316Z,0.60
2023-07-21T09:24:05.320Z,0.60
2023-07-21T09:26:35.379Z,0.68
2023-07-21T09:29:17.362Z,0.50
2023-07-21T09:31:48.599Z,0.60
2023-07-21T09:34:17.856Z,0.57
2023-07-21T09:36:47.892Z,0.60
2023-07-21T09:39:19.956Z,0.90
2023-07-21T09:41:54.005Z,0.75
2023-07-21T09:44:24.199Z,0.63
2023-07-21T09:46:56.218Z,0.75
2023-07-21T09:49:25.697Z,0.52
2023-07-21T09:51:56.714Z,0.60
2023-07-21T09:54:31.223Z,0.38
2023-07-21T09:57:03.147Z,1.02
2023-07-21T09:59:36.417Z,0.80
2023-07-21T10:02:09.770Z,0.50
2023-07-21T10:04:39.657Z,0.45
2023-07-21T10:07:10.747Z,0.60
2023-07-21T10:09:44.502Z,0.50
2023-07-21T10:12:17.362Z,0.70
2023-07-21T10:14:47.947Z,0.50
2023-07-21T10:17:26.946Z,0.55
2023-07-21T10:20:12.986Z,0.40
2023-07-21T10:22:56.424Z,0.52
2023-07-21T10:25:27.999Z,0.40
2023-07-21T10:28:05.499Z,0.60
2023-07-21T10:30:34.824Z,0.55
2023-07-21T10:33:14.482Z,0.55
2023-07-21T10:35:43.862Z,0.47
2023-07-21T10:38:25.507Z,0.47
2023-07-21T10:40:56.135Z,0.50
2023-07-21T10:43:25.545Z,0.40
2023-07-21T10:45:55.791Z,0.50
2023-07-21T10:48:28.480Z,0.50
2023-07-21T10:51:00.899Z,0.43
2023-07-21T10:53:30.416Z,0.40
2023-07-21T10:56:08.548Z,0.50
2023-07-21T10:58:38.741Z,0.50
2023-07-21T11:01:12.081Z,0.45
2023-07-21T11:03:44.452Z,0.50
2023-07-21T11:06:14.199Z,0.43
2023-07-21T11:08:43.555Z,0.60
2023-07-21T11:11:14.474Z,0.50
2023-07-21T11:13:43.964Z,0.50
2023-07-21T11:16:13.215Z,1.45
2023-07-21T11:18:43.912Z,0.40
2023-07-21T11:21:13.314Z,0.50
2023-07-21T11:23:42.577Z,0.38
2023-07-21T11:26:15.896Z,0.50
2023-07-21T11:28:45.601Z,0.65
2023-07-21T11:31:16.067Z,0.50
2023-07-21T11:33:47.228Z,0.50
2023-07-21T11:36:17.966Z,0.50
2023-07-21T11:39:04.222Z,0.60
2023-07-21T11:41:54.633Z,0.50
2023-07-21T11:44:26.893Z,0.60
2023-07-21T11:46:58.831Z,0.47
2023-07-21T11:49:29.963Z,0.50
2023-07-21T11:52:01.578Z,0.50
2023-07-21T11:54:32.087Z,0.50
2023-07-21T11:57:02.874Z,0.70
2023-07-21T11:59:34.681Z,0.50
2023-07-21T12:02:06.638Z,0.57
2023-07-21T12:04:37.513Z,0.57
2023-07-21T12:07:08.405Z,0.52
2023-07-21T12:09:39.499Z,0.70
2023-07-21T12:12:12.605Z,0.60
2023-07-21T12:14:41.897Z,0.60
2023-07-21T12:17:12.008Z,0.50
2023-07-21T12:19:43.636Z,0.40
2023-07-21T12:22:13.091Z,0.45
2023-07-21T12:24:42.606Z,0.80
2023-07-21T12:27:13.743Z,0.40
2023-07-21T12:29:46.117Z,0.52
2023-07-21T12:32:16.690Z,0.50
2023-07-21T12:34:48.315Z,0.75
2023-07-21T12:37:18.177Z,0.57
2023-07-21T12:39:48.761Z,0.40
2023-07-21T12:42:20.104Z,0.50
2023-07-21T12:44:49.231Z,0.52
2023-07-21T12:47:18.397Z,0.50
2023-07-21T12:49:49.299Z,0.50
2023-07-21T12:52:18.710Z,0.70
2023-07-21T12:54:47.865Z,0.60
2023-07-21T12:57:22.122Z,0.73
2023-07-21T12:59:51.347Z,0.60
2023-07-21T13:02:25.645Z,0.50
2023-07-21T13:04:54.989Z,0.45
2023-07-21T13:07:24.853Z,0.45
2023-07-21T13:09:54.658Z,0.60
2023-07-21T13:12:27.016Z,0.55
2023-07-21T13:14:56.269Z,0.50
2023-07-21T13:17:25.570Z,0.73
2023-07-21T13:19:55.308Z,0.50
2023-07-21T13:22:24.916Z,0.50
2023-07-21T13:24:54.460Z,0.40
2023-07-21T13:27:25.596Z,0.77
2023-07-21T13:29:55.218Z,0.50
2023-07-21T13:32:25.239Z,0.50
2023-07-21T13:34:55.290Z,0.30
2023-07-21T13:37:26.690Z,0.95
2023-07-21T13:39:56.496Z,0.65
2023-07-21T13:42:27.035Z,0.38
2023-07-21T13:44:56.280Z,0.40
2023-07-21T13:47:26.011Z,0.50
2023-07-21T13:49:55.938Z,0.47
2023-07-21T13:52:25.597Z,0.50
2023-07-21T13:54:56.188Z,0.50
2023-07-21T13:57:27.013Z,0.50
2023-07-21T13:59:56.219Z,0.73
2023-07-21T14:02:25.548Z,0.50
2023-07-21T14:04:55.168Z,0.60
2023-07-21T14:07:24.660Z,0.52
2023-07-21T14:09:53.944Z,0.80
2023-07-21T14:12:25.637Z,1.27
2023-07-21T14:14:56.448Z,0.60
2023-07-21T14:17:26.183Z,1.75
2023-07-21T14:19:56.037Z,0.60
2023-07-21T14:22:27.822Z,0.52
2023-07-21T14:24:56.961Z,0.68
2023-07-21T14:27:26.457Z,0.80
2023-07-21T14:29:57.329Z,0.80
2023-07-21T14:32:27.841Z,0.80
2023-07-21T14:34:57.156Z,0.90
2023-07-21T14:37:26.625Z,0.68
2023-07-21T14:39:56.911Z,0.70
2023-07-21T14:42:26.159Z,0.57
2023-07-21T14:44:56.718Z,0.55
2023-07-21T14:47:25.976Z,1.15
2023-07-21T14:49:55.132Z,0.80
2023-07-21T14:52:25.617Z,0.60
2023-07-21T14:54:54.871Z,0.65
2023-07-21T14:57:24.364Z,0.65
2023-07-21T14:59:53.729Z,0.68
2023-07-21T15:02:27.109Z,1.00
2023-07-21T15:04:56.366Z,0.45
2023-07-21T15:07:26.178Z,0.50
2023-07-21T15:09:55.605Z,0.90
2023-07-21T15:12:27.270Z,0.57
2023-07-21T15:14:56.501Z,0.60
2023-07-21T15:17:28.220Z,0.70
2023-07-21T15:19:58.305Z,0.70
2023-07-21T15:22:28.651Z,0.52
2023-07-21T15:24:57.884Z,0.70
2023-07-21T15:27:27.339Z,0.60
2023-07-21T15:29:56.590Z,0.65
2023-07-21T15:32:27.453Z,0.60
2023-07-21T15:34:56.905Z,0.70
2023-07-21T15:37:26.200Z,0.65
2023-07-21T15:39:55.454Z,0.77
2023-07-21T15:42:24.701Z,0.70
2023-07-21T15:44:54.061Z,0.80
2023-07-21T15:47:23.293Z,0.70
2023-07-21T15:49:54.361Z,0.82
2023-07-21T15:52:23.746Z,0.90
2023-07-21T15:54:53.345Z,0.60
2023-07-21T15:57:23.210Z,0.82
2023-07-21T15:59:52.844Z,1.08
2023-07-21T16:02:22.657Z,0.80
2023-07-21T16:04:55.205Z,0.80
2023-07-21T16:07:24.755Z,0.50
2023-07-21T16:09:54.284Z,0.73
2023-07-21T16:12:23.446Z,0.70
2023-07-21T16:14:53.132Z,0.80
2023-07-21T16:17:22.613Z,0.80
2023-07-21T16:19:53.497Z,0.73
2023-07-21T16:22:22.991Z,0.80
2023-07-21T16:24:53.859Z,0.70
2023-07-21T16:27:24.553Z,1.83
2023-07-21T16:29:53.770Z,1.50
2023-07-21T16:32:23.178Z,1.35
2023-07-21T16:34:54.241Z,1.10
2023-07-21T16:37:24.113Z,1.20
2023-07-21T16:39:56.126Z,1.98
2023-07-21T16:42:27.240Z,0.82
2023-07-21T16:44:58.267Z,1.02
2023-07-21T16:47:28.143Z,1.55
2023-07-21T16:49:59.172Z,0.90
2023-07-21T16:52:28.549Z,1.08
2023-07-21T16:55:03.481Z,0.98
2023-07-21T16:57:34.377Z,1.23
2023-07-21T17:00:11.696Z,0.90
2023-07-21T17:02:43.775Z,0.60
2023-07-21T17:05:30.987Z,0.55
2023-07-21T17:08:04.031Z,1.00
2023-07-21T17:10:33.946Z,0.93
2023-07-21T17:13:05.340Z,0.90
2023-07-21T17:15:35.232Z,8.52
2023-07-21T17:18:07.817Z,2.72
2023-07-21T17:20:38.917Z,1.67
2023-07-21T17:23:08.884Z,1.30
2023-07-21T17:25:38.483Z,0.80
2023-07-21T17:28:08.438Z,0.75
2023-07-21T17:30:38.887Z,0.80
2023-07-21T17:33:09.326Z,0.50
2023-07-21T17:35:44.321Z,0.95
2023-07-21T17:38:15.042Z,0.77
2023-07-21T17:40:57.348Z,1.05
2023-07-21T17:43:27.938Z,1.10
2023-07-21T17:45:59.506Z,1.05
2023-07-21T17:48:34.076Z,0.93
2023-07-21T17:51:07.132Z,0.70
2023-07-21T17:53:36.672Z,0.90
2023-07-21T17:56:07.285Z,1.05
2023-07-21T17:58:38.393Z,0.90
2023-07-21T18:01:08.705Z,1.15
2023-07-21T18:03:38.509Z,1.20
2023-07-21T18:06:10.460Z,0.93
2023-07-21T18:08:40.442Z,1.35
2023-07-21T18:11:10.833Z,1.25
2023-07-21T18:13:40.715Z,1.40
2023-07-21T18:16:19.973Z,1.30
2023-07-21T18:18:49.759Z,1.20
2023-07-21T18:21:24.401Z,1.27
2023-07-21T18:23:54.186Z,1.05
2023-07-21T18:26:27.771Z,1.10
2023-07-21T18:29:01.937Z,1.00
2023-07-21T18:31:32.574Z,1.15
2023-07-21T18:34:02.165Z,1.53
2023-07-21T18:36:34.093Z,1.20
2023-07-21T18:39:06.191Z,1.17
2023-07-21T18:41:38.375Z,1.27
2023-07-21T18:44:08.309Z,1.20
2023-07-21T18:46:37.950Z,1.70
2023-07-21T18:49:15.635Z,1.43
2023-07-21T18:51:49.032Z,1.60
2023-07-21T18:54:23.131Z,1.60
2023-07-21T18:56:54.461Z,1.53
2023-07-21T18:59:24.094Z,1.50
2023-07-21T19:01:54.479Z,2.00
2023-07-21T19:04:25.015Z,1.80
2023-07-21T19:06:57.879Z,1.60
2023-07-21T19:09:33.798Z,1.93
2023-07-21T19:12:03.376Z,1.90
2023-07-21T19:14:33.433Z,10.53
2023-07-21T19:17:03.853Z,2.33
2023-07-21T19:19:33.445Z,1.67
2023-07-21T19:22:05.752Z,1.93
2023-07-21T19:24:36.851Z,1.70
2023-07-21T19:27:07.309Z,1.80
2023-07-21T19:29:37.604Z,1.83
2023-07-21T19:32:11.642Z,1.73
2023-07-21T19:34:41.568Z,1.83
2023-07-21T19:37:13.269Z,1.70
2023-07-21T19:39:43.027Z,2.00
2023-07-21T19:42:17.520Z,2.37
2023-07-21T19:44:48.117Z,1.90
2023-07-21T19:47:21.098Z,2.03
2023-07-21T19:49:51.730Z,2.10
2023-07-21T19:52:22.509Z,1.80
2023-07-21T19:54:53.691Z,2.00
2023-07-21T19:57:23.259Z,2.23
2023-07-21T19:59:54.872Z,2.40
2023-07-21T20:02:24.523Z,2.03
2023-07-21T20:04:53.949Z,2.10
2023-07-21T20:07:25.232Z,2.10
2023-07-21T20:09:55.291Z,1.93
2023-07-21T20:12:24.950Z,2.53
2023-07-21T20:14:54.615Z,5.03
2023-07-21T20:17:24.250Z,3.23
2023-07-21T20:19:53.761Z,2.17
2023-07-21T20:22:27.177Z,1.90
2023-07-21T20:24:57.672Z,2.13
2023-07-21T20:27:29.426Z,2.50
2023-07-21T20:29:59.780Z,2.50
2023-07-21T20:32:31.416Z,2.43
2023-07-21T20:35:00.969Z,2.30
2023-07-21T20:37:33.188Z,2.43
2023-07-21T20:40:04.913Z,2.63
2023-07-21T20:42:41.495Z,2.40
2023-07-21T20:45:16.314Z,2.87
2023-07-21T20:47:49.584Z,3.00
2023-07-21T20:50:30.345Z,2.87
2023-07-21T20:53:05.077Z,5.67
2023-07-21T20:55:45.462Z,2.77
2023-07-21T20:58:15.156Z,2.87
2023-07-21T21:00:47.740Z,3.23
2023-07-21T21:03:21.658Z,3.30
2023-07-21T21:05:58.554Z,3.63
2023-07-21T21:08:32.920Z,3.60
2023-07-21T21:11:02.824Z,3.60
2023-07-21T21:16:38.674Z,2.95
2023-07-21T21:19:15.457Z,3.80
2023-07-21T21:21:48.634Z,3.77
2023-07-21T21:24:28.225Z,3.13
2023-07-21T21:26:59.956Z,3.27
2023-07-21T21:29:29.915Z,2.90
2023-07-21T21:32:01.808Z,2.77
2023-07-21T21:34:39.192Z,3.20
2023-07-21T21:37:11.035Z,2.40
2023-07-21T21:39:52.813Z,2.43
2023-07-21T21:42:28.239Z,2.30
2023-07-21T21:45:06.226Z,2.20
2023-07-21T21:47:43.773Z,2.40
2023-07-21T21:50:17.683Z,2.10
2023-07-21T21:52:52.401Z,2.07
2023-07-21T21:55:23.998Z,1.80
2023-07-21T21:57:54.374Z,1.90
2023-07-21T22:00:26.852Z,2.17
2023-07-21T22:02:56.346Z,2.23
2023-07-21T22:05:26.096Z,2.30
2023-07-21T22:07:56.741Z,2.37
2023-07-21T22:10:27.837Z,2.07
2023-07-21T22:12:58.717Z,2.20
2023-07-21T22:15:30.851Z,2.10
2023-07-21T22:18:01.970Z,2.37
2023-07-21T22:20:31.752Z,2.50
2023-07-21T22:23:01.276Z,2.60
2023-07-21T22:25:35.295Z,2.10
2023-07-21T22:28:05.756Z,2.20
2023-07-21T22:30:37.666Z,3.03
2023-07-21T22:33:07.910Z,2.00
2023-07-21T22:35:37.536Z,2.67
2023-07-21T22:38:08.501Z,2.43
2023-07-21T22:40:40.662Z,3.10
2023-07-21T22:43:10.501Z,2.37
2023-07-21T22:45:40.399Z,3.13
2023-07-21T22:48:09.828Z,3.13
2023-07-21T22:50:40.138Z,3.10
2023-07-21T22:53:09.868Z,3.10
2023-07-21T22:55:41.117Z,2.87
2023-07-21T22:58:11.117Z,2.90
2023-07-21T23:00:40.642Z,3.20
2023-07-21T23:03:11.665Z,2.87
2023-07-21T23:05:45.966Z,3.43
2023-07-21T23:08:16.723Z,3.10
2023-07-21T23:10:53.685Z,3.50
2023-07-21T23:13:23.552Z,3.17
2023-07-21T23:15:53.880Z,3.50
2023-07-21T23:18:23.262Z,3.63
2023-07-21T23:20:52.970Z,3.40
2023-07-21T23:23:23.017Z,3.63
2023-07-21T23:25:59.186Z,3.30
2023-07-21T23:28:28.417Z,3.93
2023-07-21T23:31:05.054Z,3.40
2023-07-21T23:33:37.170Z,3.70
2023-07-21T23:36:07.611Z,4.13
2023-07-21T23:38:38.090Z,3.97
2023-07-21T23:41:11.863Z,4.07
2023-07-21T23:43:41.726Z,4.30
2023-07-21T23:46:12.293Z,4.10
2023-07-21T23:48:42.089Z,4.23
2023-07-21T23:51:13.500Z,4.80
2023-07-21T23:53:43.083Z,4.60
2023-07-21T23:56:15.683Z,4.50
2023-07-21T23:58:46.041Z,5.63
